Time;durP1;ratioP1;P1;durP2;ratioP2;P2;SDS_P1;SDS_P2;PMS_P1;PMS_P2;Temp;Humidity;BMP_temperature;BMP_pressure;BME280_temperature;BME280_humidity;BME280_pressure;Samples;Min_cycle;Max_cycle;Signal;HPM_P1;HPM_P2
2023/06/17 00:02:05;;;;;;;9.20;7.43;;;;;;;22.52;100.00;98937.34;5059125;28;20041;-65
2023/06/17 00:04:30;;;;;;;9.07;7.68;;;;;;;22.59;100.00;98948.72;5060148;28;20033;-64
2023/06/17 00:06:56;;;;;;;12.75;7.93;;;;;;;22.61;100.00;98950.06;5059258;28;20086;-64
2023/06/17 00:09:22;;;;;;;10.60;7.90;;;;;;;22.63;100.00;98947.13;5058533;28;20162;-64
2023/06/17 00:11:48;;;;;;;9.18;7.22;;;;;;;22.63;100.00;98949.81;5058912;28;20302;-63
2023/06/17 00:14:20;;;;;;;9.82;7.82;;;;;;;22.55;100.00;98944.91;5059680;28;20085;-64
2023/06/17 00:16:46;;;;;;;8.98;6.93;;;;;;;22.49;100.00;98941.38;5059015;28;20329;-64
2023/06/17 00:19:15;;;;;;;11.13;7.43;;;;;;;22.32;100.00;98950.66;5059202;28;20044;-64
2023/06/17 00:21:48;;;;;;;11.23;8.52;;;;;;;22.25;100.00;98949.00;5058773;28;20037;-64
2023/06/17 00:24:14;;;;;;;8.63;7.70;;;;;;;22.30;100.00;98946.34;5059190;28;20112;-64
2023/06/17 00:26:39;;;;;;;10.27;8.55;;;;;;;22.34;100.00;98945.81;5059078;28;20044;-64
2023/06/17 00:29:08;;;;;;;9.18;7.93;;;;;;;22.32;100.00;98935.28;5059318;28;20033;-64
2023/06/17 00:31:34;;;;;;;12.25;9.13;;;;;;;22.27;100.00;98938.78;5058648;28;20777;-64
2023/06/17 00:33:59;;;;;;;10.35;7.78;;;;;;;22.31;100.00;98941.75;5058421;28;20029;-64
2023/06/17 00:36:25;;;;;;;11.90;8.73;;;;;;;22.35;100.00;98947.44;5057798;28;20045;-64
2023/06/17 00:38:51;;;;;;;10.45;8.63;;;;;;;22.31;100.00;98947.16;5057804;28;20041;-64
2023/06/17 00:41:16;;;;;;;11.75;8.35;;;;;;;22.30;100.00;98949.03;5058538;28;20057;-64
2023/06/17 00:43:42;;;;;;;9.70;8.05;;;;;;;22.29;100.00;98942.03;5069902;28;20108;-64
2023/06/17 00:46:11;;;;;;;11.70;7.80;;;;;;;22.15;100.00;98945.41;5058534;28;20064;-64
2023/06/17 00:48:37;;;;;;;9.63;7.45;;;;;;;22.21;100.00;98947.06;5055200;28;20285;-64
2023/06/17 00:51:04;;;;;;;9.43;7.50;;;;;;;22.18;100.00;98947.59;5052294;28;20040;-64
2023/06/17 00:53:31;;;;;;;11.52;8.02;;;;;;;22.11;100.00;98955.88;5051457;28;20033;-64
2023/06/17 00:55:58;;;;;;;8.80;7.47;;;;;;;22.11;100.00;98950.50;5050874;28;20104;-64
2023/06/17 00:58:25;;;;;;;10.73;8.63;;;;;;;22.10;100.00;98942.66;5053464;28;20033;-64
2023/06/17 01:00:51;;;;;;;9.75;7.63;;;;;;;22.08;100.00;98953.72;5052517;28;20064;-64
2023/06/17 01:03:17;;;;;;;14.73;8.18;;;;;;;22.11;100.00;98955.06;5053777;28;20112;-64
2023/06/17 01:05:45;;;;;;;9.38;8.02;;;;;;;22.10;100.00;98950.75;5051574;28;20029;-64
2023/06/17 01:08:28;;;;;;;9.25;8.02;;;;;;;22.05;100.00;98948.81;5054038;28;20025;-64
2023/06/17 01:11:05;;;;;;;10.50;7.93;;;;;;;22.05;100.00;98951.53;5051563;28;20100;-64
2023/06/17 01:13:33;;;;;;;13.68;8.02;;;;;;;22.05;100.00;98946.13;5051809;28;20033;-64
2023/06/17 01:16:01;;;;;;;9.55;8.10;;;;;;;21.96;100.00;98950.31;5052124;28;20037;-64
2023/06/17 01:18:28;;;;;;;13.35;8.07;;;;;;;21.95;100.00;98944.13;5051924;28;20083;-64
2023/06/17 01:20:53;;;;;;;10.50;8.18;;;;;;;21.86;100.00;98945.66;5051228;28;20041;-64
2023/06/17 01:23:31;;;;;;;10.55;7.63;;;;;;;21.80;100.00;98943.13;5053461;28;20109;-64
2023/06/17 01:25:58;;;;;;;12.43;8.52;;;;;;;21.81;100.00;98942.88;5053426;28;20106;-64
2023/06/17 01:28:24;;;;;;;9.52;7.80;;;;;;;21.76;100.00;98944.72;5048991;28;20044;-64
2023/06/17 01:30:54;;;;;;;10.90;7.90;;;;;;;21.62;100.00;98950.50;5052144;28;20045;-64
2023/06/17 01:33:20;;;;;;;11.25;7.80;;;;;;;21.72;100.00;98941.69;5051848;28;20032;-64
2023/06/17 01:35:51;;;;;;;12.18;8.70;;;;;;;21.65;100.00;98941.91;5051687;28;20563;-64
2023/06/17 01:38:45;;;;;;;13.00;8.63;;;;;;;21.67;100.00;98942.47;5052699;28;20082;-64
2023/06/17 01:41:26;;;;;;;11.57;7.95;;;;;;;21.64;100.00;98942.97;5048280;28;20045;-64
2023/06/17 01:43:54;;;;;;;9.35;7.63;;;;;;;21.36;100.00;98929.72;5049338;28;20037;-64
2023/06/17 01:46:20;;;;;;;10.40;7.90;;;;;;;21.23;100.00;98935.50;5050815;28;20048;-64
2023/06/17 01:48:45;;;;;;;11.38;9.32;;;;;;;20.84;100.00;98929.31;5049304;28;20261;-64
2023/06/17 01:51:10;;;;;;;12.45;9.23;;;;;;;20.72;100.00;98927.50;5050780;28;20040;-64
2023/06/17 01:53:36;;;;;;;14.15;9.57;;;;;;;20.48;100.00;98930.63;5049382;28;20059;-64
2023/06/17 01:56:01;;;;;;;12.48;8.73;;;;;;;20.37;100.00;98930.47;5052273;28;20044;-64
2023/06/17 01:58:27;;;;;;;13.18;9.55;;;;;;;20.36;100.00;98934.19;5049459;28;20250;-64
2023/06/17 02:00:52;;;;;;;11.48;8.32;;;;;;;20.40;100.00;98926.50;5050794;28;20280;-64
2023/06/17 02:03:18;;;;;;;10.88;8.43;;;;;;;20.66;100.00;98927.69;5048501;28;20250;-64
2023/06/17 02:05:44;;;;;;;11.00;8.00;;;;;;;20.89;100.00;98932.06;5052467;28;20142;-64
2023/06/17 02:08:11;;;;;;;11.63;8.45;;;;;;;21.04;100.00;98926.88;5050068;28;20045;-64
2023/06/17 02:10:37;;;;;;;11.70;8.60;;;;;;;21.11;100.00;98930.22;5052083;28;20103;-64
2023/06/17 02:13:08;;;;;;;11.65;8.68;;;;;;;21.16;100.00;98932.97;5051688;28;20041;-64
2023/06/17 02:15:33;;;;;;;11.93;8.35;;;;;;;21.16;100.00;98929.47;5051844;28;20031;-64
2023/06/17 02:18:00;;;;;;;12.75;8.20;;;;;;;21.21;100.00;98937.59;5051151;28;20107;-64
2023/06/17 02:20:26;;;;;;;12.65;8.93;;;;;;;21.23;100.00;98927.41;5050483;28;20094;-64
2023/06/17 02:22:52;;;;;;;10.32;7.82;;;;;;;21.29;100.00;98924.53;5051475;28;20033;-64
2023/06/17 02:25:17;;;;;;;10.60;8.50;;;;;;;21.39;100.00;98926.53;5049820;28;20113;-64
2023/06/17 02:27:43;;;;;;;10.38;8.32;;;;;;;21.49;100.00;98920.44;5051113;28;20044;-64
2023/06/17 02:30:12;;;;;;;11.10;8.55;;;;;;;21.52;100.00;98923.44;5049931;28;20029;-64
2023/06/17 02:32:37;;;;;;;11.35;8.10;;;;;;;21.60;100.00;98922.19;5051384;28;20208;-64
2023/06/17 02:35:03;;;;;;;10.40;8.02;;;;;;;21.60;100.00;98922.19;5049916;28;20135;-64
2023/06/17 02:37:29;;;;;;;11.65;8.45;;;;;;;21.63;100.00;98919.78;5052967;28;20044;-64
2023/06/17 02:39:55;;;;;;;10.55;7.78;;;;;;;21.62;100.00;98923.56;5055353;28;20029;-64
2023/06/17 02:42:21;;;;;;;13.65;9.23;;;;;;;21.47;100.00;98917.19;5056015;28;20033;-64
2023/06/17 02:44:46;;;;;;;10.30;7.97;;;;;;;21.27;100.00;98923.16;5055897;28;20104;-64
2023/06/17 02:47:12;;;;;;;11.57;9.13;;;;;;;21.23;100.00;98930.13;5053058;28;20044;-64
2023/06/17 02:49:37;;;;;;;13.40;8.90;;;;;;;21.24;100.00;98929.88;5050415;28;20041;-64
2023/06/17 02:52:03;;;;;;;13.20;9.45;;;;;;;21.33;100.00;98927.53;5050812;28;20036;-64
2023/06/17 02:54:28;;;;;;;15.13;9.75;;;;;;;21.43;100.00;98929.53;5051435;28;20035;-64
2023/06/17 02:56:54;;;;;;;12.77;9.25;;;;;;;21.37;100.00;98927.84;5050433;28;20043;-64
2023/06/17 02:59:22;;;;;;;12.48;9.38;;;;;;;21.39;100.00;98931.91;5054662;28;20104;-64
2023/06/17 03:01:47;;;;;;;11.18;9.23;;;;;;;21.41;100.00;98931.66;5054387;28;20040;-64
2023/06/17 03:04:13;;;;;;;12.13;9.43;;;;;;;21.45;100.00;98932.78;5056209;28;20386;-64
2023/06/17 03:06:40;;;;;;;14.02;9.25;;;;;;;21.50;100.00;98941.75;5052452;28;20132;-64
2023/06/17 03:09:08;;;;;;;12.88;8.98;;;;;;;21.40;100.00;98940.81;5054298;28;20032;-64
2023/06/17 03:11:33;;;;;;;12.85;9.55;;;;;;;21.37;100.00;98925.16;5054318;28;20207;-64
2023/06/17 03:13:59;;;;;;;12.23;9.77;;;;;;;21.45;100.00;98930.09;5054248;28;20100;-64
2023/06/17 03:16:24;;;;;;;12.40;8.98;;;;;;;21.38;100.00;98927.59;5056423;28;20335;-64
2023/06/17 03:18:50;;;;;;;12.77;9.88;;;;;;;21.28;100.00;98920.22;5053897;28;20037;-64
2023/06/17 03:21:16;;;;;;;11.48;8.88;;;;;;;21.15;100.00;98925.13;5054061;28;20029;-64
2023/06/17 03:23:42;;;;;;;14.98;9.68;;;;;;;21.07;100.00;98939.03;5054001;28;20102;-64
2023/06/17 03:26:09;;;;;;;14.65;10.40;;;;;;;20.95;100.00;98939.16;5055087;28;20353;-64
2023/06/17 03:28:35;;;;;;;12.15;9.27;;;;;;;21.00;100.00;98940.03;5053536;28;20067;-64
2023/06/17 03:31:00;;;;;;;11.63;9.93;;;;;;;21.03;100.00;98934.16;5054519;28;20048;-64
2023/06/17 03:33:26;;;;;;;13.38;9.80;;;;;;;21.08;100.00;98940.66;5053615;28;20036;-64
2023/06/17 03:35:51;;;;;;;12.25;9.00;;;;;;;21.12;100.00;98944.47;5054380;28;20078;-64
2023/06/17 03:38:18;;;;;;;13.70;10.05;;;;;;;21.10;100.00;98944.72;5051884;28;20025;-64
2023/06/17 03:40:43;;;;;;;12.95;9.38;;;;;;;21.08;100.00;98951.44;5051946;28;20032;-64
2023/06/17 03:43:08;;;;;;;13.55;10.35;;;;;;;21.08;100.00;98946.03;5054161;28;20039;-64
2023/06/17 03:45:35;;;;;;;16.90;9.85;;;;;;;21.14;100.00;98947.72;5053630;28;20046;-64
2023/06/17 03:48:01;;;;;;;14.43;9.90;;;;;;;21.13;100.00;98946.91;5054971;28;20067;-64
2023/06/17 03:50:26;;;;;;;13.68;10.07;;;;;;;21.12;100.00;98953.38;5053575;28;20041;-64
2023/06/17 03:52:52;;;;;;;15.73;9.98;;;;;;;21.11;100.00;98954.44;5054321;28;20052;-64
2023/06/17 03:55:17;;;;;;;13.18;10.52;;;;;;;21.10;100.00;98952.81;5051471;28;20032;-64
2023/06/17 03:57:43;;;;;;;11.45;10.00;;;;;;;21.16;100.00;98959.06;5052704;28;20270;-64
2023/06/17 04:00:10;;;;;;;12.43;9.80;;;;;;;21.25;100.00;98955.72;5054281;28;20089;-64
2023/06/17 04:02:35;;;;;;;15.95;9.82;;;;;;;21.36;100.00;98959.34;5051768;28;20065;-64
2023/06/17 04:05:02;;;;;;;13.90;10.15;;;;;;;21.45;100.00;98959.72;5053698;28;20368;-64
2023/06/17 04:07:28;;;;;;;13.52;9.15;;;;;;;21.53;100.00;98970.06;5053519;28;20113;-64
2023/06/17 04:09:54;;;;;;;13.25;8.95;;;;;;;21.63;100.00;98964.78;5053410;28;20041;-64
2023/06/17 04:12:19;;;;;;;13.43;9.93;;;;;;;21.68;100.00;98970.22;5053410;28;20087;-64
2023/06/17 04:14:44;;;;;;;17.80;10.50;;;;;;;21.72;100.00;98965.94;5054617;28;20223;-64
2023/06/17 04:17:10;;;;;;;12.63;9.40;;;;;;;21.73;100.00;98964.88;5052827;28;20055;-64
2023/06/17 04:19:37;;;;;;;13.20;10.30;;;;;;;21.79;100.00;98973.84;5055087;28;20040;-64
2023/06/17 04:22:06;;;;;;;13.23;11.02;;;;;;;21.76;100.00;98975.16;5053668;28;20041;-64
2023/06/17 04:24:32;;;;;;;14.05;10.55;;;;;;;21.65;100.00;98971.53;5054731;28;20128;-64
2023/06/17 04:26:58;;;;;;;16.52;10.48;;;;;;;21.60;100.00;98973.38;5051598;28;20048;-64
2023/06/17 04:29:24;;;;;;;17.67;10.38;;;;;;;21.58;100.00;98970.09;5051923;28;20060;-64
2023/06/17 04:31:50;;;;;;;13.15;10.88;;;;;;;21.55;100.00;98976.00;5049918;28;20581;-65
2023/06/17 04:34:21;;;;;;;16.40;12.05;;;;;;;21.43;100.00;98976.13;5053834;28;20059;-65
2023/06/17 04:36:49;;;;;;;17.13;11.13;;;;;;;21.37;100.00;98979.00;5053192;28;20427;-65
2023/06/17 04:39:16;;;;;;;14.85;11.23;;;;;;;21.33;100.00;98979.50;5052166;28;20029;-65
2023/06/17 04:41:45;;;;;;;17.17;12.27;;;;;;;21.30;100.00;98984.59;5054105;28;20091;-65
2023/06/17 04:44:12;;;;;;;17.15;12.57;;;;;;;21.33;100.00;98986.78;5051444;28;20035;-65
2023/06/17 04:46:38;;;;;;;16.52;12.05;;;;;;;21.27;100.00;98993.97;5052717;28;20064;-65
2023/06/17 04:49:03;;;;;;;14.68;11.63;;;;;;;21.21;100.00;98996.81;5051971;28;20029;-65
2023/06/17 04:51:29;;;;;;;14.45;12.18;;;;;;;21.22;100.00;99001.16;5052034;28;20098;-65
2023/06/17 04:53:54;;;;;;;15.23;11.98;;;;;;;21.25;100.00;99000.69;5054299;28;20037;-65
2023/06/17 04:56:20;;;;;;;15.25;11.25;;;;;;;21.26;100.00;99005.00;5050365;28;20041;-65
2023/06/17 04:58:45;;;;;;;16.02;12.93;;;;;;;21.27;100.00;99007.44;5052556;28;20037;-65
2023/06/17 05:01:12;;;;;;;16.80;12.05;;;;;;;21.28;100.00;99011.75;5052081;28;20377;-65
2023/06/17 05:03:37;;;;;;;16.90;11.65;;;;;;;21.28;100.00;99005.56;5053441;28;20923;-65
2023/06/17 05:06:02;;;;;;;13.65;10.30;;;;;;;21.29;100.00;99008.00;5049229;28;20066;-65
2023/06/17 05:08:28;;;;;;;16.77;11.02;;;;;;;21.27;100.00;99012.00;5053499;28;20033;-65
2023/06/17 05:10:53;;;;;;;13.95;11.05;;;;;;;21.15;100.00;99012.09;5051171;28;20212;-65
2023/06/17 05:13:19;;;;;;;14.10;11.38;;;;;;;21.12;100.00;99011.78;5052547;28;20311;-65
2023/06/17 05:15:44;;;;;;;16.27;10.23;;;;;;;21.11;100.00;99027.13;5051437;28;20231;-65
2023/06/17 05:18:10;;;;;;;15.55;10.55;;;;;;;21.10;100.00;99027.38;5052070;28;20319;-65
2023/06/17 05:20:35;;;;;;;16.15;11.57;;;;;;;21.07;100.00;99028.66;5053217;28;20060;-65
2023/06/17 05:23:00;;;;;;;15.98;12.00;;;;;;;21.08;100.00;99030.31;5051985;28;20345;-65
2023/06/17 05:25:26;;;;;;;15.30;11.60;;;;;;;21.10;100.00;99030.06;5052513;28;20056;-65
2023/06/17 05:27:51;;;;;;;17.17;12.18;;;;;;;21.15;100.00;99030.94;5051348;28;20029;-65
2023/06/17 05:30:17;;;;;;;16.05;11.93;;;;;;;21.28;100.00;99033.31;5052261;28;20199;-65
2023/06/17 05:32:42;;;;;;;16.88;12.55;;;;;;;21.31;100.00;99029.31;5052171;28;21020;-65
2023/06/17 05:35:08;;;;;;;16.15;13.02;;;;;;;21.39;100.00;99028.88;5054342;28;20047;-65
2023/06/17 05:37:33;;;;;;;15.15;12.27;;;;;;;21.40;100.00;99038.56;5051437;28;20060;-65
2023/06/17 05:39:58;;;;;;;15.98;11.15;;;;;;;21.51;100.00;99053.00;5052119;28;20067;-65
2023/06/17 05:42:24;;;;;;;12.73;10.35;;;;;;;21.57;100.00;99054.69;5052946;28;20029;-65
2023/06/17 05:44:49;;;;;;;12.68;10.25;;;;;;;21.58;100.00;99053.63;5051565;28;20040;-65
2023/06/17 05:47:15;;;;;;;16.45;11.85;;;;;;;21.57;100.00;99052.81;5053613;28;20335;-65
2023/06/17 05:49:40;;;;;;;15.93;11.88;;;;;;;21.61;100.00;99055.81;5050759;28;20035;-65
2023/06/17 05:52:06;;;;;;;16.42;11.60;;;;;;;21.63;100.00;99061.75;5052835;28;20040;-65
2023/06/17 05:54:31;;;;;;;16.00;11.30;;;;;;;21.60;100.00;99052.31;5050945;28;20077;-65
2023/06/17 05:56:57;;;;;;;16.00;12.02;;;;;;;21.59;100.00;99058.75;5051149;28;20065;-65
2023/06/17 05:59:23;;;;;;;15.57;11.73;;;;;;;21.59;100.00;99058.75;5050613;28;20080;-65
2023/06/17 06:01:49;;;;;;;17.45;12.70;;;;;;;21.64;100.00;99058.81;5050653;28;20068;-65
2023/06/17 06:04:14;;;;;;;17.27;13.02;;;;;;;21.70;100.00;99066.97;5052177;28;20025;-65
2023/06/17 06:06:40;;;;;;;15.73;13.35;;;;;;;21.77;100.00;99067.59;5048359;28;20041;-65
2023/06/17 06:09:05;;;;;;;16.38;13.00;;;;;;;21.78;100.00;99072.72;5051893;28;20040;-65
2023/06/17 06:11:31;;;;;;;15.90;12.73;;;;;;;21.82;100.00;99064.97;5051244;28;20037;-65
2023/06/17 06:13:56;;;;;;;17.52;13.00;;;;;;;21.73;100.00;99066.47;5051602;28;20052;-65
2023/06/17 06:16:22;;;;;;;17.15;12.55;;;;;;;21.67;100.00;99068.28;5051123;28;20036;-65
2023/06/17 06:18:47;;;;;;;19.63;13.20;;;;;;;21.71;100.00;99073.97;5052854;28;20036;-65
2023/06/17 06:21:12;;;;;;;19.38;14.23;;;;;;;21.80;100.00;99067.09;5051237;28;20101;-65
2023/06/17 06:23:38;;;;;;;18.35;14.68;;;;;;;21.79;100.00;99068.16;5052430;28;20098;-65
2023/06/17 06:26:03;;;;;;;20.65;15.20;;;;;;;21.77;100.00;99067.59;5051379;28;20065;-65
2023/06/17 06:28:29;;;;;;;16.23;12.88;;;;;;;21.69;100.00;99066.16;5050726;28;20075;-65
2023/06/17 06:30:54;;;;;;;24.13;15.75;;;;;;;21.66;100.00;99072.84;5052165;28;20276;-65
2023/06/17 06:33:21;;;;;;;19.17;14.73;;;;;;;21.53;100.00;99070.53;5051188;28;20025;-65
2023/06/17 06:35:47;;;;;;;18.30;14.27;;;;;;;21.43;100.00;99069.59;5052357;28;20108;-65
2023/06/17 06:38:12;;;;;;;18.67;15.82;;;;;;;21.47;100.00;99068.03;5048459;28;20037;-65
2023/06/17 06:40:38;;;;;;;17.60;14.00;;;;;;;21.62;100.00;99068.22;5051832;28;20037;-65
2023/06/17 06:43:03;;;;;;;19.92;15.63;;;;;;;21.75;100.00;99069.72;5051026;28;20043;-65
2023/06/17 06:45:28;;;;;;;20.15;15.48;;;;;;;21.82;100.00;99062.25;5050820;28;20090;-65
2023/06/17 06:47:54;;;;;;;19.55;16.27;;;;;;;21.89;100.00;99071.00;5050782;28;20044;-65
2023/06/17 06:50:20;;;;;;;20.63;16.05;;;;;;;21.96;100.00;99074.31;5052705;28;20060;-65
2023/06/17 06:52:45;;;;;;;22.13;16.60;;;;;;;21.91;100.00;99071.56;5049404;28;20326;-65
2023/06/17 06:55:10;;;;;;;23.48;15.52;;;;;;;21.97;100.00;99065.16;5049259;28;20075;-65
2023/06/17 06:57:36;;;;;;;20.52;15.65;;;;;;;21.90;100.00;99062.66;5048248;28;20032;-65
2023/06/17 07:00:07;;;;;;;19.83;15.77;;;;;;;21.97;100.00;99071.38;5050541;28;20270;-65
2023/06/17 07:02:33;;;;;;;22.80;16.45;;;;;;;21.99;100.00;99069.25;5051198;28;20037;-65
2023/06/17 07:04:58;;;;;;;23.73;16.77;;;;;;;22.01;100.00;99068.97;5048204;28;20033;-65
2023/06/17 07:07:24;;;;;;;22.92;16.23;;;;;;;22.08;100.00;99071.50;5050753;28;20255;-65
2023/06/17 07:09:49;;;;;;;20.65;16.00;;;;;;;22.11;100.00;99069.13;5046742;28;20302;-65
2023/06/17 07:12:15;;;;;;;22.55;16.00;;;;;;;22.13;100.00;99075.09;5049787;28;20326;-65
2023/06/17 07:14:40;;;;;;;23.73;16.08;;;;;;;22.12;100.00;99072.63;5050350;28;20485;-65
2023/06/17 07:17:06;;;;;;;25.10;16.05;;;;;;;22.11;100.00;99068.31;5050895;28;20331;-65
2023/06/17 07:19:31;;;;;;;21.98;15.90;;;;;;;22.09;100.00;99071.25;5047157;28;20045;-65
2023/06/17 07:21:56;;;;;;;24.40;18.70;;;;;;;22.19;100.00;99071.38;5049454;28;20025;-65
2023/06/17 07:24:22;;;;;;;24.48;19.60;;;;;;;22.19;100.00;99075.94;5050087;28;20091;-65
2023/06/17 07:26:47;;;;;;;23.00;17.92;;;;;;;22.14;100.00;99068.63;5048788;28;20285;-65
2023/06/17 07:29:13;;;;;;;21.73;16.30;;;;;;;22.18;100.00;99067.03;5050719;28;20311;-65
2023/06/17 07:31:38;;;;;;;34.22;30.73;;;;;;;22.02;100.00;99065.22;5048071;28;20039;-65
2023/06/17 07:34:03;;;;;;;27.30;22.98;;;;;;;22.14;100.00;99065.94;5050762;28;20327;-65
2023/06/17 07:36:31;;;;;;;28.60;21.30;;;;;;;22.09;100.00;99075.84;5050602;28;20037;-65
2023/06/17 07:38:57;;;;;;;26.88;20.15;;;;;;;22.04;100.00;99068.50;5051430;28;20406;-65
2023/06/17 07:41:23;;;;;;;27.02;22.45;;;;;;;21.94;100.00;99073.75;5051241;28;20082;-65
2023/06/17 07:43:48;;;;;;;23.20;18.85;;;;;;;22.07;100.00;99068.00;5051489;28;20319;-65
2023/06/17 07:46:14;;;;;;;33.38;28.38;;;;;;;22.08;100.00;99071.50;5054109;28;20178;-65
2023/06/17 07:48:39;;;;;;;26.98;21.15;;;;;;;22.13;100.00;99077.78;5053968;28;20071;-65
2023/06/17 07:51:05;;;;;;;24.20;21.60;;;;;;;22.00;100.00;99070.06;5054782;28;20319;-65
2023/06/17 07:53:31;;;;;;;24.02;19.15;;;;;;;22.10;100.00;99064.81;5054203;28;20024;-65
2023/06/17 07:55:56;;;;;;;28.80;25.67;;;;;;;21.95;100.00;99062.72;5052809;28;20040;-65
2023/06/17 07:58:21;;;;;;;24.25;17.88;;;;;;;22.04;100.00;99073.09;5051859;28;20031;-65
2023/06/17 08:00:47;;;;;;;22.50;17.70;;;;;;;22.02;100.00;99080.59;5055266;28;20043;-65
2023/06/17 08:03:13;;;;;;;33.97;30.40;;;;;;;21.97;100.00;99076.75;5052798;28;20064;-65
2023/06/17 08:05:39;;;;;;;27.60;23.17;;;;;;;22.11;100.00;99077.22;5053603;28;20139;-65
2023/06/17 08:08:04;;;;;;;28.63;19.33;;;;;;;22.09;100.00;99079.34;5053782;28;20293;-65
2023/06/17 08:10:30;;;;;;;29.52;23.42;;;;;;;22.23;100.00;99080.59;5053414;28;20083;-65
2023/06/17 08:12:55;;;;;;;26.13;19.90;;;;;;;22.16;100.00;99077.28;5054397;28;20037;-65
2023/06/17 08:15:21;;;;;;;27.88;21.15;;;;;;;22.33;100.00;99087.16;5052385;28;20049;-65
2023/06/17 08:17:48;;;;;;;30.20;22.77;;;;;;;22.38;100.00;99089.91;5054286;28;20056;-65
2023/06/17 08:20:16;;;;;;;29.63;21.17;;;;;;;22.42;100.00;99093.72;5052163;28;20029;-65
2023/06/17 08:22:41;;;;;;;30.30;22.27;;;;;;;22.41;100.00;99089.38;5052478;28;20037;-65
2023/06/17 08:25:07;;;;;;;26.95;21.08;;;;;;;22.37;100.00;99090.97;5053083;28;20111;-65
2023/06/17 08:27:33;;;;;;;27.30;20.73;;;;;;;22.43;100.00;99093.47;5052981;28;20202;-65
2023/06/17 08:29:59;;;;;;;26.45;20.90;;;;;;;22.34;100.00;99096.88;5052557;28;20044;-65
2023/06/17 08:32:25;;;;;;;25.17;19.13;;;;;;;22.31;100.00;99106.28;5053335;28;20264;-65
2023/06/17 08:34:50;;;;;;;25.33;19.05;;;;;;;22.29;100.00;99103.03;5053251;28;20729;-65
2023/06/17 08:37:16;;;;;;;25.65;19.17;;;;;;;22.33;100.00;99098.75;5053872;28;20045;-65
2023/06/17 08:39:42;;;;;;;26.60;19.42;;;;;;;22.23;100.00;99099.47;5053940;28;20078;-65
2023/06/17 08:42:08;;;;;;;27.20;19.52;;;;;;;22.28;100.00;99096.81;5052889;28;20108;-65
2023/06/17 08:44:38;;;;;;;25.40;17.65;;;;;;;22.34;100.00;99096.88;5052928;28;20102;-65
2023/06/17 08:47:05;;;;;;;26.30;20.38;;;;;;;22.20;100.00;99096.44;5053227;28;20044;-65
2023/06/17 08:49:30;;;;;;;30.33;19.73;;;;;;;22.25;100.00;99091.94;5054226;28;20060;-65
2023/06/17 08:52:02;;;;;;;20.73;16.38;;;;;;;22.38;100.00;99096.09;5051784;28;20342;-65
2023/06/17 08:54:28;;;;;;;24.00;18.08;;;;;;;22.36;100.00;99098.25;5054099;28;20331;-65
2023/06/17 08:56:54;;;;;;;20.67;16.70;;;;;;;22.44;100.00;99102.38;5052901;28;20032;-65
2023/06/17 08:59:20;;;;;;;19.30;16.02;;;;;;;22.32;100.00;99101.69;5054604;28;20052;-65
2023/06/17 09:01:47;;;;;;;20.65;14.23;;;;;;;22.48;100.00;99095.38;5053543;28;20029;-65
2023/06/17 09:04:14;;;;;;;17.88;13.85;;;;;;;22.43;100.00;99095.34;5052044;28;20043;-65
2023/06/17 09:06:39;;;;;;;20.45;16.05;;;;;;;22.58;100.00;99092.78;5053707;28;20057;-64
2023/06/17 09:09:05;;;;;;;24.27;21.58;;;;;;;22.55;100.00;99096.00;5051090;28;20066;-64
2023/06/17 09:11:32;;;;;;;19.10;14.88;;;;;;;22.70;100.00;99103.41;5053852;28;20044;-64
2023/06/17 09:14:01;;;;;;;19.20;14.25;;;;;;;22.76;100.00;99102.38;5051761;28;20110;-64
2023/06/17 09:16:34;;;;;;;23.73;19.90;;;;;;;22.66;100.00;99100.41;5056215;28;20045;-64
2023/06/17 09:19:01;;;;;;;20.42;15.27;;;;;;;22.68;100.00;99105.56;5055821;28;20099;-64
2023/06/17 09:21:27;;;;;;;16.23;13.95;;;;;;;22.81;100.00;99100.56;5057260;28;20146;-64
2023/06/17 09:23:58;;;;;;;23.27;15.15;;;;;;;22.89;100.00;99100.13;5054280;28;20075;-64
2023/06/17 09:26:29;;;;;;;19.38;15.07;;;;;;;22.78;100.00;99101.06;5051742;28;20041;-64
2023/06/17 09:29:06;;;;;;;25.08;18.45;;;;;;;22.95;100.00;99103.69;5053680;28;20037;-64
2023/06/17 09:31:35;;;;;;;24.02;16.67;;;;;;;23.01;100.00;99105.34;5051061;28;20513;-64
2023/06/17 09:34:03;;;;;;;24.67;16.35;;;;;;;23.07;100.00;99100.81;5051594;28;20036;-64
2023/06/17 09:36:30;;;;;;;21.70;15.55;;;;;;;23.05;100.00;99095.66;5052799;28;20029;-64
2023/06/17 09:38:55;;;;;;;20.98;15.23;;;;;;;23.04;100.00;99107.53;5050666;28;20052;-64
2023/06/17 09:41:23;;;;;;;19.33;15.02;;;;;;;23.10;100.00;99101.09;5053657;28;20052;-66
2023/06/17 09:43:52;;;;;;;19.70;15.45;;;;;;;23.12;100.00;99107.06;5051208;28;21823;-63
2023/06/17 09:46:29;;;;;;;20.40;15.00;;;;;;;23.10;100.00;99111.09;5051109;28;20124;-63
2023/06/17 09:48:55;;;;;;;21.48;15.27;;;;;;;23.10;100.00;99108.38;5052352;28;20040;-65
2023/06/17 09:51:21;;;;;;;22.52;17.30;;;;;;;23.11;100.00;99102.72;5050149;28;20041;-65
2023/06/17 09:53:49;;;;;;;23.80;17.88;;;;;;;23.06;100.00;99105.41;5051448;28;20033;-64
2023/06/17 09:56:17;;;;;;;22.25;18.98;;;;;;;22.97;100.00;99106.13;5051284;28;20030;-65
2023/06/17 09:58:44;;;;;;;25.33;20.20;;;;;;;23.06;100.00;99109.97;5050809;28;20056;-65
2023/06/17 10:01:11;;;;;;;28.13;17.92;;;;;;;23.17;100.00;99112.50;5052246;28;20043;-64
2023/06/17 10:03:40;;;;;;;22.90;17.58;;;;;;;23.18;100.00;99105.22;5050801;28;20033;-64
2023/06/17 10:06:13;;;;;;;25.52;17.40;;;;;;;23.17;100.00;99108.97;5048503;28;20120;-65
2023/06/17 10:08:47;;;;;;;25.00;18.63;;;;;;;23.11;100.00;99104.63;5050425;28;20052;-65
2023/06/17 10:11:17;;;;;;;22.27;18.35;;;;;;;23.01;100.00;99110.75;5051443;28;20045;-65
2023/06/17 10:13:45;;;;;;;23.63;16.92;;;;;;;23.10;100.00;99109.19;5050977;28;20812;-65
2023/06/17 10:16:16;;;;;;;25.85;18.50;;;;;;;23.16;100.00;99108.16;5050712;28;20221;-65
2023/06/17 10:18:47;;;;;;;20.30;15.27;;;;;;;22.93;100.00;99112.03;5051032;28;20104;-65
2023/06/17 10:21:13;;;;;;;24.13;16.23;;;;;;;22.75;100.00;99108.84;5052305;28;20065;-65
2023/06/17 10:23:42;;;;;;;16.17;14.18;;;;;;;22.90;100.00;99114.44;5050523;28;20055;-65
2023/06/17 10:26:08;;;;;;;17.77;13.75;;;;;;;22.91;100.00;99121.47;5052757;28;20033;-64
2023/06/17 10:28:53;;;;;;;16.30;12.20;;;;;;;22.60;100.00;99118.44;5056496;28;20094;-65
2023/06/17 10:31:22;;;;;;;23.65;20.20;;;;;;;22.60;100.00;99118.44;5052866;28;20107;-65
2023/06/17 10:33:49;;;;;;;23.23;18.42;;;;;;;22.76;100.00;99099.69;5050861;28;20068;-65
2023/06/17 10:36:15;;;;;;;22.90;16.75;;;;;;;22.80;100.00;99095.44;5052102;28;20034;-65
2023/06/17 10:38:40;;;;;;;23.83;16.73;;;;;;;22.70;100.00;99095.31;5049347;28;20440;-65
2023/06/17 10:41:05;;;;;;;25.55;20.65;;;;;;;22.70;100.00;99098.84;5052338;28;20029;-65
2023/06/17 10:43:37;;;;;;;22.08;16.67;;;;;;;22.82;100.00;99101.38;5050283;28;20354;-64
2023/06/17 10:46:03;;;;;;;20.98;16.25;;;;;;;22.85;100.00;99098.19;5049772;28;20112;-65
2023/06/17 10:48:32;;;;;;;19.25;15.02;;;;;;;22.69;100.00;99101.78;5048727;28;20042;-65
2023/06/17 10:51:01;;;;;;;17.50;15.30;;;;;;;22.73;100.00;99100.19;5040056;28;20025;-65
2023/06/17 10:53:28;;;;;;;17.20;13.93;;;;;;;22.64;100.00;99097.16;5038551;28;20220;-65
2023/06/17 10:55:56;;;;;;;17.52;13.35;;;;;;;22.59;100.00;99097.13;5037016;28;20216;-65
2023/06/17 10:58:22;;;;;;;19.60;14.45;;;;;;;22.60;100.00;99098.75;5045864;28;20050;-65
2023/06/17 11:01:02;;;;;;;18.65;14.63;;;;;;;22.49;100.00;99097.84;5057215;28;20243;-64
2023/06/17 11:03:28;;;;;;;22.17;17.08;;;;;;;22.53;100.00;99085.47;5057836;28;20258;-65
2023/06/17 11:06:01;;;;;;;25.52;19.83;;;;;;;22.58;100.00;99080.09;5057767;28;20052;-64
2023/06/17 11:08:31;;;;;;;21.90;15.80;;;;;;;22.69;100.00;99083.72;5057432;28;20028;-65
2023/06/17 11:11:16;;;;;;;19.77;15.15;;;;;;;22.80;100.00;99085.44;5057559;28;20041;-65